Time;durP1;ratioP1;P1;durP2;ratioP2;P2;SDS_P1;SDS_P2;PMS_P1;PMS_P2;Temp;Humidity;BMP_temperature;BMP_pressure;BME280_temperature;BME280_humidity;BME280_pressure;Samples;Min_cycle;Max_cycle;Signal;HPM_P1;HPM_P2
2021/07/20 00:00:43;;;;;;;1.77;1.20;;;15.80;72.20;;;;;;5121368;28;20611;-83
2021/07/20 00:03:10;;;;;;;2.30;1.20;;;15.80;72.40;;;;;;5083496;28;20489;-82
2021/07/20 00:05:39;;;;;;;1.63;1.05;;;15.80;72.50;;;;;;5104292;28;20099;-83
2021/07/20 00:08:05;;;;;;;2.08;1.02;;;15.80;72.50;;;;;;5103094;28;20043;-81
2021/07/20 00:10:42;;;;;;;1.65;1.05;;;15.70;72.60;;;;;;5098347;28;20193;-80
2021/07/20 00:13:09;;;;;;;2.78;1.48;;;15.70;72.70;;;;;;5118020;28;20044;-81
2021/07/20 00:15:36;;;;;;;1.20;0.98;;;15.70;72.80;;;;;;5085434;28;20051;-80
2021/07/20 00:18:09;;;;;;;1.70;1.00;;;15.60;72.90;;;;;;5100205;28;20047;-81
2021/07/20 00:20:45;;;;;;;1.90;1.38;;;15.50;72.90;;;;;;5110375;28;20138;-85
2021/07/20 00:23:12;;;;;;;2.15;1.25;;;15.60;73.10;;;;;;5014095;28;20045;-82
2021/07/20 00:26:00;;;;;;;1.30;1.05;;;15.50;73.20;;;;;;5030492;28;20034;-85
2021/07/20 00:28:26;;;;;;;2.35;1.35;;;15.50;73.20;;;;;;4977280;28;20156;-81
2021/07/20 00:34:12;;;;;;;2.00;1.23;;;15.40;73.50;;;;;;5011898;28;20044;-86
2021/07/20 00:36:54;;;;;;;2.10;1.17;;;15.30;73.50;;;;;;4983239;28;20037;-81
2021/07/20 00:39:27;;;;;;;1.70;1.17;;;15.30;73.60;;;;;;4981271;28;20141;-84
2021/07/20 00:42:01;;;;;;;2.45;1.30;;;15.40;73.70;;;;;;4975889;28;20501;-82
2021/07/20 00:44:30;;;;;;;1.90;1.08;;;15.30;73.80;;;;;;4942924;28;20042;-82
2021/07/20 00:46:58;;;;;;;1.55;1.17;;;15.20;73.80;;;;;;4977003;28;20053;-79
2021/07/20 00:49:30;;;;;;;2.50;1.40;;;15.20;74.00;;;;;;4960176;28;20125;-84
2021/07/20 00:52:03;;;;;;;1.75;1.02;;;15.10;74.00;;;;;;4960841;29;20043;-84
2021/07/20 00:55:00;;;;;;;2.17;1.30;;;15.20;74.20;;;;;;4968142;28;20038;-82
2021/07/20 00:58:11;;;;;;;2.10;1.23;;;15.10;74.20;;;;;;4934213;29;20127;-82
2021/07/20 01:00:37;;;;;;;1.40;0.80;;;15.10;74.20;;;;;;4909878;29;20040;-80
2021/07/20 01:03:05;;;;;;;1.65;1.10;;;15.00;74.10;;;;;;4926434;29;20051;-83
2021/07/20 01:05:32;;;;;;;1.50;1.00;;;14.90;74.20;;;;;;4942586;29;20086;-82
2021/07/20 01:08:03;;;;;;;1.42;1.13;;;15.00;74.30;;;;;;4954208;29;20416;-80
2021/07/20 01:10:29;;;;;;;1.95;0.82;;;14.90;74.40;;;;;;4956401;29;20371;-80
2021/07/20 01:13:36;;;;;;;2.78;1.30;;;15.00;74.50;;;;;;4979045;28;20067;-86
2021/07/20 01:19:30;;;;;;;1.73;1.05;;;14.90;74.70;;;;;;4978176;28;20041;-82
2021/07/20 01:22:00;;;;;;;2.00;1.20;;;14.90;74.70;;;;;;4978698;28;20050;-82
2021/07/20 01:24:25;;;;;;;1.67;1.08;;;14.80;74.70;;;;;;4993767;28;20042;-82
2021/07/20 01:26:52;;;;;;;1.77;1.13;;;14.80;74.80;;;;;;4996435;28;20049;-79
2021/07/20 01:29:21;;;;;;;2.25;1.25;;;14.80;74.80;;;;;;4997697;28;20042;-83
2021/07/20 01:31:48;;;;;;;2.28;1.33;;;14.80;74.80;;;;;;4977818;28;20054;-82
2021/07/20 01:34:21;;;;;;;1.58;0.82;;;14.80;74.90;;;;;;4987650;28;20046;-83
2021/07/20 01:36:51;;;;;;;1.42;0.95;;;14.70;74.90;;;;;;4990237;28;20043;-82
2021/07/20 01:39:17;;;;;;;1.60;0.90;;;14.80;75.00;;;;;;5009371;28;20046;-80
2021/07/20 01:41:51;;;;;;;1.50;1.02;;;14.80;75.10;;;;;;4991858;28;20043;-82
2021/07/20 01:44:29;;;;;;;1.50;0.90;;;14.70;75.00;;;;;;4997918;28;20454;-81
2021/07/20 01:50:48;;;;;;;1.35;0.90;;;14.70;75.10;;;;;;4915220;29;20039;-82
2021/07/20 01:53:14;;;;;;;2.58;1.23;;;14.70;75.00;;;;;;4934964;29;20040;-81
2021/07/20 01:55:40;;;;;;;1.90;1.00;;;14.80;75.10;;;;;;4945143;29;20055;-81
2021/07/20 01:58:37;;;;;;;1.95;1.20;;;14.70;75.10;;;;;;4934722;29;20175;-81
2021/07/20 02:01:28;;;;;;;1.70;1.10;;;14.80;75.20;;;;;;4915148;29;20422;-81
2021/07/20 02:04:39;;;;;;;1.17;0.80;;;14.70;75.20;;;;;;4865154;29;20044;-81
2021/07/20 02:09:48;;;;;;;1.27;1.00;;;14.60;75.20;;;;;;4881230;29;20055;-81
2021/07/20 02:12:17;;;;;;;1.48;0.93;;;14.70;75.20;;;;;;4912839;29;20058;-81
2021/07/20 02:14:47;;;;;;;2.05;1.17;;;14.70;75.30;;;;;;4937794;28;20042;-81
2021/07/20 02:17:15;;;;;;;1.70;0.93;;;14.60;75.30;;;;;;4960535;28;20038;-81
2021/07/20 02:19:54;;;;;;;2.22;1.20;;;14.70;75.50;;;;;;4974505;28;20068;-81
2021/07/20 02:22:23;;;;;;;2.03;1.05;;;14.60;75.50;;;;;;4959942;28;20176;-80
2021/07/20 02:24:53;;;;;;;1.88;1.20;;;14.60;75.50;;;;;;4992595;28;20038;-81
2021/07/20 02:27:21;;;;;;;2.85;1.00;;;14.60;75.60;;;;;;4963247;28;20050;-81
2021/07/20 02:29:51;;;;;;;2.30;1.23;;;14.50;75.60;;;;;;4979481;28;20042;-81
2021/07/20 02:32:21;;;;;;;1.80;0.93;;;14.40;75.70;;;;;;5002577;28;20438;-81
2021/07/20 02:34:50;;;;;;;2.38;1.20;;;14.50;75.90;;;;;;5076842;28;20040;-81
2021/07/20 02:37:21;;;;;;;1.90;1.30;;;14.40;75.80;;;;;;5079522;28;20035;-81
2021/07/20 02:39:48;;;;;;;2.77;1.23;;;14.40;76.00;;;;;;5062710;28;20039;-81
2021/07/20 02:42:16;;;;;;;1.92;1.10;;;14.40;76.00;;;;;;5062215;28;20505;-81
2021/07/20 02:44:44;;;;;;;1.85;0.93;;;14.40;76.10;;;;;;5062257;28;20115;-81
2021/07/20 02:47:12;;;;;;;1.48;1.00;;;14.40;76.20;;;;;;5062121;28;20032;-81
2021/07/20 02:49:39;;;;;;;1.75;1.05;;;14.40;76.30;;;;;;5062054;28;20036;-81
2021/07/20 02:52:07;;;;;;;1.50;1.10;;;14.30;76.30;;;;;;5062009;28;20035;-81
2021/07/20 02:54:35;;;;;;;2.25;1.13;;;14.30;76.30;;;;;;5062159;28;20070;-81
2021/07/20 02:57:03;;;;;;;1.48;0.98;;;14.30;76.30;;;;;;5061145;28;20035;-81
2021/07/20 02:59:30;;;;;;;2.22;1.30;;;14.10;76.30;;;;;;5061949;28;20549;-81
2021/07/20 03:01:59;;;;;;;1.48;1.00;;;14.20;76.40;;;;;;5078819;28;20051;-81
2021/07/20 03:04:25;;;;;;;1.92;1.15;;;14.30;76.50;;;;;;5061813;28;20043;-81
2021/07/20 03:06:56;;;;;;;1.60;0.90;;;14.20;76.40;;;;;;5078922;28;20043;-81
2021/07/20 03:09:24;;;;;;;1.48;1.02;;;14.20;76.50;;;;;;5062658;28;20045;-81
2021/07/20 03:11:54;;;;;;;1.90;0.98;;;14.20;76.40;;;;;;5061793;28;20044;-81
2021/07/20 03:14:24;;;;;;;2.65;1.10;;;14.10;76.50;;;;;;5062599;28;20126;-81
2021/07/20 03:16:51;;;;;;;1.88;1.00;;;14.10;76.50;;;;;;5061642;28;20028;-81
2021/07/20 03:19:22;;;;;;;1.55;1.08;;;14.00;76.60;;;;;;5078484;28;20452;-81
2021/07/20 03:21:53;;;;;;;2.03;1.00;;;14.00;76.60;;;;;;5062254;28;20131;-81
2021/07/20 03:24:21;;;;;;;1.92;1.10;;;13.90;76.70;;;;;;5078746;28;20047;-81
2021/07/20 03:26:48;;;;;;;1.35;1.00;;;14.00;76.80;;;;;;5061675;28;20035;-81
2021/07/20 03:29:15;;;;;;;1.63;1.02;;;13.90;76.80;;;;;;5065727;28;20056;-81
2021/07/20 03:31:43;;;;;;;2.30;1.25;;;13.90;76.90;;;;;;5063972;28;20115;-81
2021/07/20 03:34:09;;;;;;;2.00;1.10;;;13.80;77.00;;;;;;5061846;28;20036;-81
2021/07/20 03:36:36;;;;;;;1.95;1.05;;;13.80;77.10;;;;;;5095009;28;20048;-81
2021/07/20 03:39:04;;;;;;;2.60;1.25;;;13.80;77.20;;;;;;5094737;28;20063;-81
2021/07/20 03:41:33;;;;;;;2.20;1.10;;;13.80;77.30;;;;;;5061855;28;20502;-81
2021/07/20 03:44:01;;;;;;;1.45;0.90;;;13.70;77.30;;;;;;5061352;28;20089;-81
2021/07/20 03:46:28;;;;;;;1.98;1.17;;;13.70;77.30;;;;;;5061524;28;20458;-81
2021/07/20 03:48:54;;;;;;;2.15;1.25;;;13.70;77.30;;;;;;5078128;28;20134;-81
2021/07/20 03:51:23;;;;;;;1.50;0.88;;;13.70;77.30;;;;;;5061231;28;20115;-81
2021/07/20 03:53:50;;;;;;;1.88;1.20;;;13.70;77.40;;;;;;5061501;28;20493;-81
2021/07/20 03:56:18;;;;;;;2.25;1.20;;;13.70;77.40;;;;;;5078401;28;20055;-81
2021/07/20 03:58:45;;;;;;;1.48;1.13;;;13.70;77.30;;;;;;5061315;28;20036;-81
2021/07/20 04:01:13;;;;;;;2.50;1.30;;;13.70;77.40;;;;;;5078185;28;20048;-81
2021/07/20 04:03:41;;;;;;;2.40;1.40;;;13.70;77.40;;;;;;5078027;28;20040;-81
2021/07/20 04:06:09;;;;;;;2.63;1.10;;;13.60;77.40;;;;;;5061893;28;20036;-81
2021/07/20 04:08:37;;;;;;;1.75;1.15;;;13.70;77.50;;;;;;5094966;28;20043;-82
2021/07/20 04:11:04;;;;;;;2.28;1.23;;;13.60;77.40;;;;;;5061629;28;20497;-81
2021/07/20 04:13:31;;;;;;;1.88;1.05;;;13.70;77.40;;;;;;5061003;28;20046;-81
2021/07/20 04:16:04;;;;;;;2.35;1.10;;;13.80;77.40;;;;;;5061486;28;20516;-80
2021/07/20 04:18:31;;;;;;;1.98;0.85;;;13.80;77.30;;;;;;5061593;28;20047;-82
2021/07/20 04:20:59;;;;;;;1.45;0.93;;;13.80;77.20;;;;;;5060988;28;20046;-81
2021/07/20 04:23:27;;;;;;;1.98;1.05;;;13.80;77.20;;;;;;5061099;28;20038;-81
2021/07/20 04:25:55;;;;;;;1.92;1.17;;;13.90;77.20;;;;;;5060829;28;20111;-81
2021/07/20 04:28:22;;;;;;;1.77;1.10;;;13.90;77.10;;;;;;5061013;28;20035;-81
2021/07/20 04:30:50;;;;;;;1.42;0.98;;;13.90;77.10;;;;;;5060988;28;20481;-80
2021/07/20 04:33:25;;;;;;;2.63;1.02;;;13.90;77.00;;;;;;5077297;28;20048;-81
2021/07/20 04:35:54;;;;;;;1.67;1.00;;;14.10;77.10;;;;;;5061941;28;20047;-81
2021/07/20 04:38:21;;;;;;;1.65;1.02;;;14.00;77.00;;;;;;5094306;28;20131;-80
2021/07/20 04:40:48;;;;;;;1.48;1.00;;;14.00;76.80;;;;;;5077346;28;20096;-81
2021/07/20 04:43:19;;;;;;;1.23;0.90;;;14.00;76.70;;;;;;5060443;28;20046;-81
2021/07/20 04:45:47;;;;;;;1.60;1.10;;;14.10;76.70;;;;;;5061310;28;20043;-81
2021/07/20 04:48:15;;;;;;;1.58;1.00;;;14.10;76.70;;;;;;5060784;28;20035;-81
2021/07/20 04:50:43;;;;;;;1.23;0.88;;;14.10;76.60;;;;;;5077089;28;20538;-81
2021/07/20 04:53:10;;;;;;;1.95;1.00;;;14.20;76.60;;;;;;5060552;28;20515;-81
2021/07/20 04:55:38;;;;;;;1.75;0.88;;;14.20;76.60;;;;;;5052559;28;20048;-81
2021/07/20 04:58:06;;;;;;;0.90;0.70;;;14.20;76.60;;;;;;5041454;28;20052;-77
2021/07/20 05:00:32;;;;;;;1.00;0.80;;;14.30;76.60;;;;;;5080832;28;20052;-77
2021/07/20 05:03:00;;;;;;;1.50;1.00;;;14.30;76.50;;;;;;5081608;28;20052;-77
2021/07/20 05:05:29;;;;;;;1.30;0.80;;;14.40;76.50;;;;;;5081336;28;20198;-78
2021/07/20 05:07:57;;;;;;;1.08;0.82;;;14.40;76.40;;;;;;5047941;28;20044;-78
2021/07/20 05:10:24;;;;;;;1.70;1.08;;;14.40;76.50;;;;;;5063656;28;20052;-79
2021/07/20 05:12:51;;;;;;;2.05;1.20;;;14.50;76.50;;;;;;5046485;28;20033;-77
2021/07/20 05:15:19;;;;;;;1.40;0.95;;;14.50;76.40;;;;;;5062369;28;20040;-77
2021/07/20 05:17:46;;;;;;;1.13;0.80;;;14.50;76.30;;;;;;5061510;28;20040;-77
2021/07/20 05:20:15;;;;;;;0.90;0.60;;;14.60;76.20;;;;;;5064933;28;20449;-77
2021/07/20 05:22:43;;;;;;;1.30;0.80;;;14.70;76.70;;;;;;5082219;28;20063;-78
2021/07/20 05:25:12;;;;;;;1.67;0.95;;;14.80;76.00;;;;;;5083158;28;20495;-77
2021/07/20 05:27:42;;;;;;;1.77;1.10;;;14.80;75.90;;;;;;5101040;28;20052;-77
2021/07/20 05:30:09;;;;;;;1.23;0.85;;;14.90;75.80;;;;;;5123268;27;20091;-77
2021/07/20 05:32:40;;;;;;;1.00;0.70;;;15.00;75.60;;;;;;5139584;27;20467;-77
2021/07/20 05:35:10;;;;;;;1.02;0.80;;;15.10;75.50;;;;;;5139084;28;20063;-77
2021/07/20 05:37:38;;;;;;;2.13;1.00;;;15.10;75.30;;;;;;5120334;28;20047;-77
2021/07/20 05:40:09;;;;;;;1.20;0.90;;;15.20;75.30;;;;;;5103194;28;20250;-78
2021/07/20 05:42:37;;;;;;;1.25;0.80;;;15.30;75.10;;;;;;5134918;28;20125;-82
2021/07/20 05:45:06;;;;;;;1.63;0.90;;;15.30;75.30;;;;;;5063441;28;20063;-82
2021/07/20 05:47:38;;;;;;;1.30;0.80;;;15.40;75.00;;;;;;5096552;28;20044;-81
2021/07/20 05:50:06;;;;;;;1.52;1.00;;;15.40;74.80;;;;;;5063358;28;20036;-81
2021/07/20 05:52:35;;;;;;;1.40;1.00;;;15.50;74.70;;;;;;5079758;28;20124;-81
2021/07/20 05:55:04;;;;;;;1.15;0.90;;;15.60;74.60;;;;;;5063655;28;20036;-81
2021/07/20 05:57:31;;;;;;;1.10;0.73;;;15.60;74.50;;;;;;5080039;28;20059;-80
2021/07/20 06:00:00;;;;;;;1.25;0.90;;;15.70;74.40;;;;;;5079477;28;20412;-81
2021/07/20 06:02:27;;;;;;;1.33;1.00;;;15.70;74.30;;;;;;5063269;28;20070;-81
2021/07/20 06:04:54;;;;;;;1.55;0.85;;;15.80;74.30;;;;;;5096629;28;20097;-81
2021/07/20 06:07:21;;;;;;;2.13;1.17;;;15.90;74.30;;;;;;5079582;28;20036;-81
2021/07/20 06:09:47;;;;;;;1.15;1.00;;;15.90;74.10;;;;;;5079432;28;20044;-82
2021/07/20 06:12:15;;;;;;;1.08;0.88;;;16.00;74.00;;;;;;5062881;28;20039;-81
2021/07/20 06:14:43;;;;;;;1.95;1.10;;;16.00;73.90;;;;;;5063492;28;20131;-79
2021/07/20 06:17:09;;;;;;;1.50;1.10;;;16.10;73.90;;;;;;5079560;28;20043;-80
2021/07/20 06:19:37;;;;;;;0.88;0.70;;;16.10;73.80;;;;;;5079359;28;20066;-79
2021/07/20 06:22:08;;;;;;;1.40;1.00;;;16.20;73.60;;;;;;5062700;28;20131;-79
2021/07/20 06:24:40;;;;;;;0.90;0.65;;;16.20;73.60;;;;;;5114951;28;20050;-79
2021/07/20 06:27:07;;;;;;;1.20;0.73;;;16.30;73.40;;;;;;5114462;28;20103;-80
2021/07/20 06:29:35;;;;;;;1.38;0.95;;;16.40;73.30;;;;;;5079242;28;21387;-80
2021/07/20 06:32:02;;;;;;;1.40;0.80;;;16.50;73.20;;;;;;5096225;28;20036;-80
2021/07/20 06:34:33;;;;;;;1.10;0.90;;;16.50;73.10;;;;;;5114376;28;20040;-80
2021/07/20 06:36:59;;;;;;;1.27;1.00;;;16.60;72.90;;;;;;5080422;28;20031;-82
2021/07/20 06:39:26;;;;;;;1.98;1.00;;;16.70;72.70;;;;;;5079370;28;20067;-77
2021/07/20 06:41:53;;;;;;;2.40;1.40;;;16.80;72.50;;;;;;5079309;28;20485;-81
2021/07/20 06:44:20;;;;;;;1.55;0.75;;;16.90;72.40;;;;;;5080024;28;20043;-82
2021/07/20 06:46:46;;;;;;;2.13;1.15;;;16.90;72.20;;;;;;5079889;28;20035;-81
2021/07/20 06:49:20;;;;;;;1.08;0.80;;;17.10;72.20;;;;;;5078973;28;20546;-80
2021/07/20 06:51:46;;;;;;;1.38;1.05;;;17.20;72.10;;;;;;5061123;28;20039;-82
2021/07/20 06:54:16;;;;;;;1.85;1.20;;;17.30;71.80;;;;;;5096580;28;20040;-81
2021/07/20 06:56:48;;;;;;;1.38;1.00;;;17.30;71.50;;;;;;5062761;28;20039;-81
2021/07/20 06:59:18;;;;;;;1.27;0.82;;;17.50;71.40;;;;;;5062960;28;20454;-79
2021/07/20 07:01:50;;;;;;;1.20;1.00;;;17.60;71.30;;;;;;5079884;28;20039;-78
2021/07/20 07:04:31;;;;;;;1.63;1.15;;;17.60;71.20;;;;;;5062532;28;20318;-78
2021/07/20 07:06:59;;;;;;;1.45;1.02;;;17.80;71.00;;;;;;5080114;28;20035;-78
2021/07/20 07:09:28;;;;;;;1.60;0.90;;;18.00;70.80;;;;;;5062654;28;20043;-80
2021/07/20 07:11:55;;;;;;;1.15;0.98;;;18.00;70.50;;;;;;5079962;28;20036;-78
2021/07/20 07:14:23;;;;;;;1.35;0.90;;;18.30;70.50;;;;;;5095278;28;20035;-79
2021/07/20 07:16:53;;;;;;;1.17;0.95;;;18.40;70.30;;;;;;5096976;28;20088;-79
2021/07/20 07:19:20;;;;;;;1.45;1.00;;;18.60;70.10;;;;;;5096952;28;20040;-77
2021/07/20 07:21:51;;;;;;;2.33;1.10;;;18.70;69.90;;;;;;5114663;28;20028;-77
2021/07/20 07:24:18;;;;;;;1.40;0.90;;;18.80;69.70;;;;;;5098749;28;20095;-77
2021/07/20 07:26:47;;;;;;;1.83;1.17;;;19.00;69.70;;;;;;5095180;28;20045;-77
2021/07/20 07:29:17;;;;;;;2.55;1.30;;;19.10;70.10;;;;;;5079273;28;20050;-77
2021/07/20 07:31:44;;;;;;;1.55;1.00;;;19.20;69.10;;;;;;5061631;28;20437;-77
2021/07/20 07:34:11;;;;;;;2.05;1.20;;;19.40;69.10;;;;;;5095177;28;20050;-77
2021/07/20 07:36:40;;;;;;;2.30;1.10;;;19.50;69.00;;;;;;5078202;28;20443;-77
2021/07/20 07:39:07;;;;;;;1.88;1.25;;;19.70;68.70;;;;;;5113563;28;20044;-79
2021/07/20 07:41:39;;;;;;;2.05;1.05;;;19.80;68.50;;;;;;5078163;28;20049;-78
2021/07/20 07:44:09;;;;;;;2.15;1.13;;;19.90;68.20;;;;;;5095316;28;20040;-81
2021/07/20 07:46:37;;;;;;;1.75;1.20;;;19.90;68.00;;;;;;5078196;28;20035;-81
2021/07/20 07:49:03;;;;;;;1.73;1.15;;;19.90;68.40;;;;;;5113373;28;20432;-81
2021/07/20 07:51:29;;;;;;;2.50;1.30;;;20.10;68.60;;;;;;5080652;28;20035;-79
2021/07/20 07:53:58;;;;;;;1.77;1.20;;;20.20;68.50;;;;;;5108841;28;20111;-79
2021/07/20 07:56:27;;;;;;;1.80;1.17;;;20.30;68.20;;;;;;5064555;28;20127;-79
2021/07/20 07:58:55;;;;;;;1.95;1.30;;;20.50;67.90;;;;;;5061552;28;20088;-78
2021/07/20 08:01:50;;;;;;;2.03;1.30;;;20.60;67.50;;;;;;5079576;28;20051;-83
2021/07/20 08:04:22;;;;;;;2.22;1.40;;;20.70;67.30;;;;;;5116376;28;20043;-79
2021/07/20 08:06:50;;;;;;;1.92;1.20;;;20.70;67.40;;;;;;5111130;28;20074;-79
2021/07/20 08:09:18;;;;;;;3.08;1.45;;;20.80;67.50;;;;;;5073540;28;20054;-80
2021/07/20 08:11:47;;;;;;;1.58;1.23;;;20.90;67.30;;;;;;5108770;28;20512;-78
2021/07/20 08:14:14;;;;;;;1.40;1.20;;;21.00;67.20;;;;;;5100042;28;20051;-82
2021/07/20 08:16:45;;;;;;;1.88;1.20;;;21.20;67.20;;;;;;5116446;28;20042;-80
2021/07/20 08:19:19;;;;;;;2.20;1.30;;;21.20;66.90;;;;;;5121002;28;20040;-79
2021/07/20 08:21:46;;;;;;;1.98;1.30;;;21.30;66.90;;;;;;5119585;28;20061;-79
2021/07/20 08:24:13;;;;;;;1.40;0.98;;;21.50;66.80;;;;;;5084587;28;20040;-78
2021/07/20 08:26:48;;;;;;;1.73;1.20;;;21.70;66.60;;;;;;5099938;28;20015;-80
2021/07/20 08:29:18;;;;;;;1.70;1.30;;;21.80;66.20;;;;;;5081490;28;20050;-80
2021/07/20 08:31:51;;;;;;;1.65;1.25;;;21.90;66.20;;;;;;5081634;28;20063;-81
2021/07/20 08:34:20;;;;;;;2.00;1.38;;;22.00;66.10;;;;;;5123883;28;20061;-79
2021/07/20 08:36:48;;;;;;;2.33;1.58;;;22.20;66.00;;;;;;5115192;28;20019;-79
2021/07/20 08:39:16;;;;;;;2.05;1.42;;;22.30;65.70;;;;;;5080919;28;20048;-80
2021/07/20 08:42:17;;;;;;;2.05;1.20;;;22.50;65.40;;;;;;5077735;28;20043;-76
2021/07/20 08:45:19;;;;;;;1.95;1.33;;;22.70;65.20;;;;;;5112595;28;20043;-76
2021/07/20 08:48:10;;;;;;;1.92;1.30;;;22.60;65.00;;;;;;5112765;28;20485;-79
2021/07/20 08:50:56;;;;;;;1.83;1.13;;;22.50;65.40;;;;;;5084620;28;20044;-78
2021/07/20 08:53:39;;;;;;;1.27;1.10;;;22.20;65.90;;;;;;5098212;28;20052;-79
2021/07/20 08:56:06;;;;;;;1.30;1.15;;;22.40;66.10;;;;;;5133238;28;20039;-78
2021/07/20 08:58:51;;;;;;;2.10;1.20;;;22.30;66.10;;;;;;5101672;28;20039;-79
2021/07/20 09:01:30;;;;;;;2.38;1.50;;;22.50;66.20;;;;;;5116345;28;20050;-80
2021/07/20 09:04:05;;;;;;;4.00;1.73;;;22.70;65.50;;;;;;5116483;28;20118;-80
2021/07/20 09:06:51;;;;;;;2.25;1.55;;;22.90;65.10;;;;;;5105462;28;20042;-77
2021/07/20 09:09:30;;;;;;;1.88;1.27;;;23.00;64.90;;;;;;5119958;28;20039;-79
2021/07/20 09:12:04;;;;;;;1.88;1.45;;;23.20;64.70;;;;;;5084171;28;20063;-78
2021/07/20 09:14:39;;;;;;;1.75;1.23;;;23.40;64.40;;;;;;5086287;28;20039;-78
2021/07/20 09:17:14;;;;;;;2.03;1.13;;;23.50;64.10;;;;;;5097721;28;20818;-81
2021/07/20 09:20:12;;;;;;;2.58;1.45;;;23.60;64.00;;;;;;5078472;28;20127;-81
2021/07/20 09:23:16;;;;;;;1.83;1.23;;;23.70;63.90;;;;;;5035527;28;20051;-78
2021/07/20 09:25:56;;;;;;;1.33;1.10;;;23.80;63.70;;;;;;5034954;28;20080;-81
2021/07/20 09:28:48;;;;;;;2.60;1.50;;;23.80;63.70;;;;;;5038882;28;20425;-81
2021/07/20 09:31:51;;;;;;;2.10;1.33;;;23.70;64.00;;;;;;5037315;28;20095;-83
2021/07/20 09:34:52;;;;;;;1.73;1.20;;;23.80;63.90;;;;;;5052667;28;20052;-81
2021/07/20 09:37:41;;;;;;;2.05;1.35;;;23.90;63.70;;;;;;5039038;28;20107;-81
2021/07/20 09:40:33;;;;;;;2.08;1.50;;;23.80;63.90;;;;;;5019085;28;20044;-79
2021/07/20 09:43:08;;;;;;;1.50;1.25;;;23.60;64.20;;;;;;5021680;28;20043;-80
2021/07/20 09:45:56;;;;;;;2.05;1.35;;;23.60;64.60;;;;;;5021825;28;20045;-81
2021/07/20 09:48:32;;;;;;;1.80;1.30;;;23.50;64.60;;;;;;5024354;28;20048;-79
2021/07/20 09:51:31;;;;;;;2.03;1.48;;;23.60;64.70;;;;;;5054873;28;20037;-81
2021/07/20 09:54:34;;;;;;;1.80;1.33;;;23.70;64.10;;;;;;5067732;28;20564;-80
2021/07/20 09:57:34;;;;;;;2.35;1.55;;;23.60;64.00;;;;;;5105220;28;20039;-79
2021/07/20 10:00:10;;;;;;;2.20;1.53;;;23.60;63.90;;;;;;5099095;28;20130;-81
2021/07/20 10:03:28;;;;;;;2.03;1.30;;;23.50;63.90;;;;;;5085480;28;20043;-83
2021/07/20 10:06:08;;;;;;;1.58;1.15;;;23.40;64.20;;;;;;5098497;28;20044;-78
2021/07/20 10:08:42;;;;;;;1.65;1.30;;;23.20;64.40;;;;;;5098635;28;20042;-79
2021/07/20 10:11:24;;;;;;;1.75;1.48;;;23.30;64.50;;;;;;5096704;28;20092;-80
2021/07/20 10:14:25;;;;;;;2.20;1.42;;;23.50;64.10;;;;;;5095451;28;20040;-80
2021/07/20 10:17:11;;;;;;;1.77;1.25;;;23.60;63.50;;;;;;5121749;28;20043;-78
2021/07/20 10:19:45;;;;;;;2.47;1.63;;;23.40;63.60;;;;;;5103065;28;20121;-80
2021/07/20 10:22:17;;;;;;;2.10;1.42;;;23.40;63.90;;;;;;5081424;28;20086;-80
2021/07/20 10:28:46;;;;;;;1.45;1.20;;;23.60;63.60;;;;;;5063852;28;20075;-80
2021/07/20 10:31:18;;;;;;;1.77;1.30;;;23.60;63.40;;;;;;5057902;28;20087;-79
2021/07/20 10:33:56;;;;;;;2.42;1.55;;;23.80;62.80;;;;;;5041649;28;20136;-78
2021/07/20 10:36:29;;;;;;;2.15;1.40;;;23.80;62.60;;;;;;5037936;28;20098;-78
2021/07/20 10:39:05;;;;;;;1.98;1.60;;;23.90;63.20;;;;;;5034705;28;20048;-78
2021/07/20 10:41:56;;;;;;;1.63;1.27;;;24.00;62.50;;;;;;5051959;28;20036;-79
2021/07/20 10:44:35;;;;;;;1.52;1.20;;;24.20;62.00;;;;;;5037825;28;20086;-79
2021/07/20 10:47:05;;;;;;;1.92;1.42;;;24.30;61.60;;;;;;5051660;28;20163;-79
2021/07/20 10:49:40;;;;;;;2.28;1.50;;;24.50;61.30;;;;;;5020838;28;20036;-78
2021/07/20 10:52:28;;;;;;;2.47;1.38;;;24.60;61.00;;;;;;5054616;28;20037;-79
2021/07/20 10:55:08;;;;;;;2.05;1.40;;;24.70;60.80;;;;;;5040042;28;20041;-78
2021/07/20 10:57:46;;;;;;;2.50;1.60;;;24.80;60.60;;;;;;5036191;28;20037;-79
2021/07/20 11:00:16;;;;;;;1.70;1.30;;;24.80;60.40;;;;;;5021042;28;20048;-80
2021/07/20 11:03:12;;;;;;;1.55;1.38;;;24.40;60.80;;;;;;5039615;28;20052;-81
2021/07/20 11:05:45;;;;;;;1.90;1.42;;;24.50;61.00;;;;;;5087340;28;20036;-81
2021/07/20 11:08:13;;;;;;;2.70;1.60;;;24.60;61.00;;;;;;5080943;28;20097;-82
2021/07/20 11:10:50;;;;;;;2.15;1.50;;;24.70;60.60;;;;;;5062307;28;20050;-80
2021/07/20 11:13:33;;;;;;;2.25;1.40;;;24.60;60.70;;;;;;5079005;28;20086;-80
2021/07/20 11:16:03;;;;;;;1.98;1.50;;;24.60;60.80;;;;;;5114276;28;20059;-81
2021/07/20 11:18:32;;;;;;;;;;;24.60;60.70;;;;;;5068658;28;20081;-81
2021/07/20 11:21:01;;;;;;;1.73;1.23;;;24.50;61.00;;;;;;5122555;28;19934;-81
2021/07/20 11:23:31;;;;;;;1.65;1.30;;;24.40;61.20;;;;;;5133380;28;20039;-79
2021/07/20 11:25:58;;;;;;;1.20;1.10;;;24.50;61.00;;;;;;5120907;28;20050;-79
2021/07/20 11:28:26;;;;;;;1.77;1.27;;;24.60;60.60;;;;;;5099318;28;20035;-79
2021/07/20 11:30:57;;;;;;;1.90;1.45;;;24.60;60.50;;;;;;5079028;28;20040;-83
2021/07/20 11:33:32;;;;;;;1.95;1.50;;;24.50;60.50;;;;;;5095757;28;20046;-78
2021/07/20 11:36:01;;;;;;;1.95;1.40;;;24.60;60.40;;;;;;5098599;28;20039;-79
2021/07/20 11:38:31;;;;;;;2.08;1.35;;;24.60;60.20;;;;;;5078569;28;20066;-79
2021/07/20 11:41:35;;;;;;;3.22;1.35;;;24.60;60.20;;;;;;5078762;28;20046;-80
2021/07/20 11:44:46;;;;;;;2.17;1.40;;;24.60;60.30;;;;;;5078136;28;20048;-84
2021/07/20 11:47:27;;;;;;;1.85;1.30;;;24.60;60.10;;;;;;5070383;28;20097;-79
2021/07/20 11:50:06;;;;;;;2.33;1.30;;;24.60;60.20;;;;;;5106987;28;20048;-78
2021/07/20 11:53:00;;;;;;;2.00;1.40;;;24.60;60.10;;;;;;5117889;28;20051;-79
2021/07/20 11:55:34;;;;;;;1.23;1.13;;;24.70;60.00;;;;;;5116166;28;20503;-78
2021/07/20 11:58:36;;;;;;;1.73;1.27;;;24.80;59.90;;;;;;5115321;28;20062;-78
2021/07/20 12:01:36;;;;;;;2.72;1.60;;;24.80;59.70;;;;;;5113527;28;20046;-78
2021/07/20 12:04:29;;;;;;;2.23;1.30;;;24.90;59.60;;;;;;5121646;28;20040;-78
2021/07/20 12:07:14;;;;;;;1.73;1.20;;;25.10;59.40;;;;;;5094655;28;20308;-77
2021/07/20 12:10:02;;;;;;;1.80;1.38;;;24.80;59.50;;;;;;5077847;28;20169;-79
2021/07/20 12:12:49;;;;;;;1.83;1.35;;;24.70;59.80;;;;;;5113762;28;20122;-79
2021/07/20 12:15:18;;;;;;;1.63;1.20;;;24.50;60.00;;;;;;5115175;28;20080;-79
2021/07/20 12:17:47;;;;;;;2.38;1.60;;;24.50;60.10;;;;;;5084843;28;20515;-80
2021/07/20 12:20:16;;;;;;;2.10;1.30;;;24.50;60.00;;;;;;5117071;28;20040;-78
2021/07/20 12:23:03;;;;;;;2.50;1.55;;;24.60;59.80;;;;;;5094924;28;20089;-87
2021/07/20 12:25:52;;;;;;;2.42;1.52;;;24.60;59.50;;;;;;5060230;28;20033;-87
2021/07/20 12:28:20;;;;;;;2.13;1.55;;;24.60;59.40;;;;;;5040381;28;20568;-85
2021/07/20 12:34:15;;;;;;;2.58;1.58;;;24.60;59.20;;;;;;4972216;28;20062;-85
2021/07/20 12:37:05;;;;;;;2.35;1.58;;;24.50;59.60;;;;;;4955964;28;20197;-86
2021/07/20 12:39:42;;;;;;;1.88;1.42;;;24.40;59.60;;;;;;4943746;28;20051;-85
2021/07/20 12:45:12;;;;;;;2.03;1.60;;;24.30;59.60;;;;;;4941165;29;20121;-85
2021/07/20 12:48:41;;;;;;;2.67;1.50;;;24.20;59.70;;;;;;4950405;28;20035;-86
2021/07/20 12:51:48;;;;;;;2.30;1.60;;;24.30;59.70;;;;;;4967448;28;20305;-84
2021/07/20 12:54:14;;;;;;;2.50;1.60;;;24.20;59.60;;;;;;4960478;28;20110;-80
2021/07/20 12:56:50;;;;;;;2.38;1.60;;;24.20;59.70;;;;;;4987363;28;20136;-82
2021/07/20 12:59:22;;;;;;;2.88;1.58;;;24.20;59.90;;;;;;4993102;28;20137;-82
2021/07/20 13:01:48;;;;;;;2.28;1.58;;;24.10;59.90;;;;;;4945417;28;20046;-82
2021/07/20 13:07:15;;;;;;;2.40;1.65;;;24.20;59.60;;;;;;5008528;28;20056;-79
2021/07/20 13:10:10;;;;;;;2.80;1.67;;;24.20;59.60;;;;;;5077787;28;20067;-82
2021/07/20 13:12:41;;;;;;;2.63;1.60;;;24.20;59.30;;;;;;4971545;28;20046;-83
2021/07/20 13:15:23;;;;;;;;;;;24.10;59.70;;;;;;4944556;28;20043;-86
2021/07/20 13:17:57;;;;;;;2.30;1.50;;;24.10;59.60;;;;;;4974169;28;19914;-84
2021/07/20 13:31:49;;;;;;;1.85;1.30;;;23.80;59.70;;;;;;4859621;29;20588;-84
2021/07/20 13:34:21;;;;;;;1.52;1.13;;;23.80;59.80;;;;;;4841140;29;20057;-85
2021/07/20 13:36:51;;;;;;;1.60;1.30;;;23.70;59.60;;;;;;4826929;29;20060;-84
2021/07/20 13:42:37;;;;;;;1.70;1.17;;;23.70;59.60;;;;;;4779916;29;20074;-81
2021/07/20 13:45:06;;;;;;;1.77;1.30;;;23.60;59.70;;;;;;4822914;29;20103;-80
2021/07/20 13:47:38;;;;;;;2.22;1.40;;;23.60;59.60;;;;;;4823338;29;20391;-79
2021/07/20 13:50:06;;;;;;;1.20;1.10;;;23.70;59.60;;;;;;4807366;29;20133;-82
2021/07/20 13:52:35;;;;;;;2.78;1.30;;;23.70;59.60;;;;;;4826387;29;20176;-79
2021/07/20 13:55:06;;;;;;;2.38;1.65;;;23.60;59.60;;;;;;4841812;29;20068;-81
2021/07/20 13:57:33;;;;;;;2.13;1.60;;;23.60;59.40;;;;;;4826283;29;20128;-79
2021/07/20 14:00:02;;;;;;;1.77;1.42;;;23.60;59.30;;;;;;4847087;29;20052;-80
2021/07/20 14:02:28;;;;;;;2.63;1.60;;;23.50;59.40;;;;;;4880014;29;20097;-81